sensor_id;sensor_type;location;lat;lon;timestamp;pressure;altitude;pressure_sealevel;temperature;humidity
82031;BME280;71592;52.178;4.512;2023-08-21T00:00:13;102361.28;;;17.88;nan
82031;BME280;71592;52.178;4.512;2023-08-21T00:02:39;102364.22;;;17.82;nan
82031;BME280;71592;52.178;4.512;2023-08-21T00:05:05;102351.63;;;17.74;nan
82031;BME280;71592;52.178;4.512;2023-08-21T00:07:31;102364.91;;;17.72;nan
82031;BME280;71592;52.178;4.512;2023-08-21T00:09:56;102367.69;;;17.72;nan
82031;BME280;71592;52.178;4.512;2023-08-21T00:12:22;102367.50;;;17.79;nan
82031;BME280;71592;52.178;4.512;2023-08-21T00:14:47;102367.00;;;17.82;nan
82031;BME280;71592;52.178;4.512;2023-08-21T00:17:13;102367.06;;;17.87;nan
82031;BME280;71592;52.178;4.512;2023-08-21T00:19:38;102365.97;;;17.88;nan
82031;BME280;71592;52.178;4.512;2023-08-21T00:22:04;102358.25;;;17.73;nan
82031;BME280;71592;52.178;4.512;2023-08-21T00:24:29;102357.09;;;17.69;nan
82031;BME280;71592;52.178;4.512;2023-08-21T00:26:54;102360.53;;;17.60;nan
82031;BME280;71592;52.178;4.512;2023-08-21T00:29:20;102357.78;;;17.60;nan
82031;BME280;71592;52.178;4.512;2023-08-21T00:31:45;102359.03;;;17.69;nan
82031;BME280;71592;52.178;4.512;2023-08-21T00:34:11;102367.34;;;17.69;nan
82031;BME280;71592;52.178;4.512;2023-08-21T00:36:36;102367.69;;;17.72;nan
82031;BME280;71592;52.178;4.512;2023-08-21T00:39:01;102352.13;;;17.54;nan
82031;BME280;71592;52.178;4.512;2023-08-21T00:41:27;102355.41;;;17.51;nan
82031;BME280;71592;52.178;4.512;2023-08-21T00:43:53;102350.78;;;17.40;nan
82031;BME280;71592;52.178;4.512;2023-08-21T00:46:18;102347.94;;;17.35;nan
82031;BME280;71592;52.178;4.512;2023-08-21T00:48:44;102351.50;;;17.31;nan
82031;BME280;71592;52.178;4.512;2023-08-21T00:51:10;102353.44;;;17.30;nan
82031;BME280;71592;52.178;4.512;2023-08-21T00:53:37;102353.06;;;17.43;nan
82031;BME280;71592;52.178;4.512;2023-08-21T00:56:03;102355.75;;;17.55;nan
82031;BME280;71592;52.178;4.512;2023-08-21T00:58:29;102355.91;;;17.65;nan
82031;BME280;71592;52.178;4.512;2023-08-21T01:00:54;102357.41;;;17.73;nan
82031;BME280;71592;52.178;4.512;2023-08-21T01:03:20;102351.03;;;17.72;nan
82031;BME280;71592;52.178;4.512;2023-08-21T01:05:46;102357.22;;;17.63;nan
82031;BME280;71592;52.178;4.512;2023-08-21T01:08:23;102354.25;;;17.47;nan
82031;BME280;71592;52.178;4.512;2023-08-21T01:10:58;102353.31;;;17.42;nan
82031;BME280;71592;52.178;4.512;2023-08-21T01:15:55;102359.47;;;17.27;nan
82031;BME280;71592;52.178;4.512;2023-08-21T01:18:22;102369.88;;;17.20;nan
82031;BME280;71592;52.178;4.512;2023-08-21T01:20:49;102357.78;;;17.26;nan
82031;BME280;71592;52.178;4.512;2023-08-21T01:23:34;102356.28;;;17.18;nan
82031;BME280;71592;52.178;4.512;2023-08-21T01:25:59;102361.88;;;17.07;nan
82031;BME280;71592;52.178;4.512;2023-08-21T01:28:25;102364.41;;;17.08;nan
82031;BME280;71592;52.178;4.512;2023-08-21T01:31:05;102364.66;;;17.07;nan
82031;BME280;71592;52.178;4.512;2023-08-21T01:33:35;102368.97;;;16.98;nan
82031;BME280;71592;52.178;4.512;2023-08-21T01:36:03;102370.16;;;17.02;nan
82031;BME280;71592;52.178;4.512;2023-08-21T01:38:32;102365.94;;;16.99;nan
82031;BME280;71592;52.178;4.512;2023-08-21T01:40:58;102363.41;;;16.98;nan
82031;BME280;71592;52.178;4.512;2023-08-21T01:43:23;102356.34;;;17.07;nan
82031;BME280;71592;52.178;4.512;2023-08-21T01:45:49;102370.63;;;17.15;nan
82031;BME280;71592;52.178;4.512;2023-08-21T01:48:15;102363.91;;;17.11;nan
82031;BME280;71592;52.178;4.512;2023-08-21T01:50:40;102365.25;;;17.09;nan
82031;BME280;71592;52.178;4.512;2023-08-21T01:53:06;102363.66;;;17.13;nan
82031;BME280;71592;52.178;4.512;2023-08-21T01:55:32;102359.88;;;17.19;nan
82031;BME280;71592;52.178;4.512;2023-08-21T01:58:00;102353.91;;;17.10;nan
82031;BME280;71592;52.178;4.512;2023-08-21T02:00:25;102364.84;;;17.17;nan
82031;BME280;71592;52.178;4.512;2023-08-21T02:02:50;102354.44;;;17.24;nan
82031;BME280;71592;52.178;4.512;2023-08-21T02:05:16;102367.63;;;17.17;nan
82031;BME280;71592;52.178;4.512;2023-08-21T02:07:41;102357.97;;;17.19;nan
82031;BME280;71592;52.178;4.512;2023-08-21T02:10:07;102370.13;;;17.18;nan
82031;BME280;71592;52.178;4.512;2023-08-21T02:12:33;102360.22;;;17.23;nan
82031;BME280;71592;52.178;4.512;2023-08-21T02:14:58;102365.34;;;17.14;nan
82031;BME280;71592;52.178;4.512;2023-08-21T02:17:26;102366.69;;;17.11;nan
82031;BME280;71592;52.178;4.512;2023-08-21T02:19:52;102366.78;;;17.16;nan
82031;BME280;71592;52.178;4.512;2023-08-21T02:22:17;102368.38;;;17.12;nan
82031;BME280;71592;52.178;4.512;2023-08-21T02:24:43;102360.78;;;17.08;nan
82031;BME280;71592;52.178;4.512;2023-08-21T02:27:08;102364.41;;;17.08;nan
82031;BME280;71592;52.178;4.512;2023-08-21T02:29:34;102366.94;;;17.10;nan
82031;BME280;71592;52.178;4.512;2023-08-21T02:31:59;102363.66;;;17.13;nan
82031;BME280;71592;52.178;4.512;2023-08-21T02:34:25;102361.97;;;17.12;nan
82031;BME280;71592;52.178;4.512;2023-08-21T02:36:50;102365.94;;;17.16;nan
82031;BME280;71592;52.178;4.512;2023-08-21T02:39:15;102370.38;;;17.17;nan
82031;BME280;71592;52.178;4.512;2023-08-21T02:41:41;102368.22;;;17.19;nan
82031;BME280;71592;52.178;4.512;2023-08-21T02:44:06;102368.03;;;17.26;nan
82031;BME280;71592;52.178;4.512;2023-08-21T02:46:31;102367.47;;;17.24;nan
82031;BME280;71592;52.178;4.512;2023-08-21T02:48:59;102363.00;;;17.23;nan
82031;BME280;71592;52.178;4.512;2023-08-21T02:51:24;102361.91;;;17.24;nan
82031;BME280;71592;52.178;4.512;2023-08-21T02:53:50;102359.22;;;17.12;nan
82031;BME280;71592;52.178;4.512;2023-08-21T02:56:15;102360.03;;;17.12;nan
82031;BME280;71592;52.178;4.512;2023-08-21T02:58:40;102352.31;;;17.14;nan
82031;BME280;71592;52.178;4.512;2023-08-21T03:01:06;102351.47;;;17.14;nan
82031;BME280;71592;52.178;4.512;2023-08-21T03:03:31;102353.75;;;17.17;nan
82031;BME280;71592;52.178;4.512;2023-08-21T03:05:59;102339.53;;;17.13;nan
82031;BME280;71592;52.178;4.512;2023-08-21T03:08:24;102345.00;;;17.08;nan
82031;BME280;71592;52.178;4.512;2023-08-21T03:10:50;102337.44;;;17.04;nan
82031;BME280;71592;52.178;4.512;2023-08-21T03:13:15;102345.44;;;17.00;nan
82031;BME280;71592;52.178;4.512;2023-08-21T03:15:40;102347.38;;;17.00;nan
82031;BME280;71592;52.178;4.512;2023-08-21T03:18:06;102349.91;;;17.01;nan
82031;BME280;71592;52.178;4.512;2023-08-21T03:20:31;102349.06;;;17.01;nan
82031;BME280;71592;52.178;4.512;2023-08-21T03:22:56;102345.34;;;16.95;nan
82031;BME280;71592;52.178;4.512;2023-08-21T03:25:22;102355.44;;;17.01;nan
82031;BME280;71592;52.178;4.512;2023-08-21T03:27:47;102346.19;;;16.96;nan
82031;BME280;71592;52.178;4.512;2023-08-21T03:30:15;102350.28;;;16.93;nan
82031;BME280;71592;52.178;4.512;2023-08-21T03:32:40;102349.47;;;16.93;nan
82031;BME280;71592;52.178;4.512;2023-08-21T03:35:06;102351.38;;;16.92;nan
82031;BME280;71592;52.178;4.512;2023-08-21T03:37:32;102346.84;;;16.86;nan
82031;BME280;71592;52.178;4.512;2023-08-21T03:39:57;102350.19;;;16.88;nan
82031;BME280;71592;52.178;4.512;2023-08-21T03:42:23;102342.72;;;16.88;nan
82031;BME280;71592;52.178;4.512;2023-08-21T03:44:48;102339.72;;;16.90;nan
82031;BME280;71592;52.178;4.512;2023-08-21T03:47:16;102349.94;;;16.90;nan
82031;BME280;71592;52.178;4.512;2023-08-21T03:49:41;102348.03;;;16.90;nan
82031;BME280;71592;52.178;4.512;2023-08-21T03:52:06;102350.44;;;16.86;nan
82031;BME280;71592;52.178;4.512;2023-08-21T03:54:32;102344.41;;;16.90;nan
82031;BME280;71592;52.178;4.512;2023-08-21T03:56:58;102342.31;;;16.97;nan
82031;BME280;71592;52.178;4.512;2023-08-21T03:59:23;102350.97;;;17.00;nan
82031;BME280;71592;52.178;4.512;2023-08-21T04:01:52;102346.19;;;16.96;nan
82031;BME280;71592;52.178;4.512;2023-08-21T04:04:18;102345.31;;;16.78;nan
82031;BME280;71592;52.178;4.512;2023-08-21T04:06:43;102338.59;;;16.74;nan
82031;BME280;71592;52.178;4.512;2023-08-21T04:09:08;102352.13;;;16.71;nan
82031;BME280;71592;52.178;4.512;2023-08-21T04:11:34;102347.78;;;16.63;nan
82031;BME280;71592;52.178;4.512;2023-08-21T04:14:01;102347.69;;;16.58;nan
82031;BME280;71592;52.178;4.512;2023-08-21T04:16:26;102350.94;;;16.55;nan
82031;BME280;71592;52.178;4.512;2023-08-21T04:18:53;102357.72;;;16.47;nan
82031;BME280;71592;52.178;4.512;2023-08-21T04:21:18;102352.84;;;16.38;nan
82031;BME280;71592;52.178;4.512;2023-08-21T04:23:44;102346.56;;;16.42;nan
82031;BME280;71592;52.178;4.512;2023-08-21T04:26:11;102349.59;;;16.58;nan
82031;BME280;71592;52.178;4.512;2023-08-21T04:28:37;102351.03;;;16.60;nan
82031;BME280;71592;52.178;4.512;2023-08-21T04:31:06;102354.09;;;16.47;nan
82031;BME280;71592;52.178;4.512;2023-08-21T04:33:32;102355.28;;;16.51;nan
82031;BME280;71592;52.178;4.512;2023-08-21T04:35:57;102359.56;;;16.42;nan
82031;BME280;71592;52.178;4.512;2023-08-21T04:38:23;102351.25;;;16.42;nan
82031;BME280;71592;52.178;4.512;2023-08-21T04:40:48;102354.16;;;16.35;nan
82031;BME280;71592;52.178;4.512;2023-08-21T04:43:14;102361.75;;;16.28;nan
82031;BME280;71592;52.178;4.512;2023-08-21T04:45:47;102356.09;;;16.35;nan
82031;BME280;71592;52.178;4.512;2023-08-21T04:48:12;102355.84;;;16.36;nan
82031;BME280;71592;52.178;4.512;2023-08-21T04:50:38;102363.78;;;16.44;nan
82031;BME280;71592;52.178;4.512;2023-08-21T04:53:03;102361.44;;;16.53;nan
82031;BME280;71592;52.178;4.512;2023-08-21T04:55:28;102365.88;;;16.66;nan
82031;BME280;71592;52.178;4.512;2023-08-21T04:57:54;102362.97;;;16.72;nan
82031;BME280;71592;52.178;4.512;2023-08-21T05:00:19;102365.66;;;16.84;nan
82031;BME280;71592;52.178;4.512;2023-08-21T05:02:45;102372.72;;;16.92;nan
82031;BME280;71592;52.178;4.512;2023-08-21T05:05:10;102365.09;;;16.99;nan
82031;BME280;71592;52.178;4.512;2023-08-21T05:07:36;102369.22;;;17.13;nan
82031;BME280;71592;52.178;4.512;2023-08-21T05:10:02;102368.97;;;17.31;nan
82031;BME280;71592;52.178;4.512;2023-08-21T05:12:28;102370.81;;;17.42;nan
82031;BME280;71592;52.178;4.512;2023-08-21T05:14:53;102362.16;;;17.55;nan
82031;BME280;71592;52.178;4.512;2023-08-21T05:17:19;102369.47;;;18.22;nan
82031;BME280;71592;52.178;4.512;2023-08-21T05:19:45;102372.97;;;19.15;nan
82031;BME280;71592;52.178;4.512;2023-08-21T05:22:10;102365.88;;;20.13;nan
82031;BME280;71592;52.178;4.512;2023-08-21T05:24:35;102375.06;;;20.97;nan
82031;BME280;71592;52.178;4.512;2023-08-21T05:27:01;102378.97;;;21.77;nan
82031;BME280;71592;52.178;4.512;2023-08-21T05:29:26;102380.03;;;22.06;nan
82031;BME280;71592;52.178;4.512;2023-08-21T05:31:52;102386.97;;;23.17;nan
82031;BME280;71592;52.178;4.512;2023-08-21T05:34:17;102387.78;;;23.86;nan
82031;BME280;71592;52.178;4.512;2023-08-21T05:36:43;102385.88;;;24.29;nan
82031;BME280;71592;52.178;4.512;2023-08-21T05:39:08;102385.44;;;25.02;nan
82031;BME280;71592;52.178;4.512;2023-08-21T05:41:34;102391.53;;;25.23;nan
82031;BME280;71592;52.178;4.512;2023-08-21T05:46:25;102392.78;;;24.98;nan
82031;BME280;71592;52.178;4.512;2023-08-21T05:48:50;102391.78;;;25.59;nan
82031;BME280;71592;52.178;4.512;2023-08-21T05:51:16;102395.00;;;26.26;nan
82031;BME280;71592;52.178;4.512;2023-08-21T05:53:41;102397.88;;;26.62;nan
82031;BME280;71592;52.178;4.512;2023-08-21T05:56:06;102394.66;;;26.14;nan
82031;BME280;71592;52.178;4.512;2023-08-21T05:58:32;102389.53;;;26.30;nan
82031;BME280;71592;52.178;4.512;2023-08-21T06:00:58;102396.13;;;26.52;nan
82031;BME280;71592;52.178;4.512;2023-08-21T06:03:23;102397.13;;;26.84;nan
82031;BME280;71592;52.178;4.512;2023-08-21T06:05:49;102402.84;;;27.82;nan
82031;BME280;71592;52.178;4.512;2023-08-21T06:08:15;102401.81;;;28.57;nan
82031;BME280;71592;52.178;4.512;2023-08-21T06:10:40;102399.88;;;29.01;nan
82031;BME280;71592;52.178;4.512;2023-08-21T06:13:05;102404.50;;;29.48;nan
82031;BME280;71592;52.178;4.512;2023-08-21T06:15:31;102404.97;;;30.23;nan
82031;BME280;71592;52.178;4.512;2023-08-21T06:17:58;102401.28;;;30.52;nan
82031;BME280;71592;52.178;4.512;2023-08-21T06:20:23;102408.91;;;30.89;nan
82031;BME280;71592;52.178;4.512;2023-08-21T06:22:48;102407.16;;;30.97;nan
82031;BME280;71592;52.178;4.512;2023-08-21T06:25:14;102407.69;;;30.70;nan
82031;BME280;71592;52.178;4.512;2023-08-21T06:27:39;102405.97;;;31.19;nan
82031;BME280;71592;52.178;4.512;2023-08-21T06:30:05;102410.72;;;31.81;nan
82031;BME280;71592;52.178;4.512;2023-08-21T06:32:31;102417.59;;;31.92;nan
82031;BME280;71592;52.178;4.512;2023-08-21T06:34:56;102417.00;;;32.72;nan
82031;BME280;71592;52.178;4.512;2023-08-21T06:37:21;102414.13;;;32.96;nan
82031;BME280;71592;52.178;4.512;2023-08-21T06:39:49;102418.38;;;33.42;nan
82031;BME280;71592;52.178;4.512;2023-08-21T06:42:15;102421.06;;;33.95;nan
82031;BME280;71592;52.178;4.512;2023-08-21T06:44:40;102423.00;;;34.38;nan
82031;BME280;71592;52.178;4.512;2023-08-21T06:47:06;102414.00;;;34.71;nan
82031;BME280;71592;52.178;4.512;2023-08-21T06:49:31;102419.69;;;34.71;nan
82031;BME280;71592;52.178;4.512;2023-08-21T06:51:57;102421.78;;;34.23;nan
82031;BME280;71592;52.178;4.512;2023-08-21T06:54:40;102422.19;;;34.06;nan
82031;BME280;71592;52.178;4.512;2023-08-21T06:57:06;102418.94;;;34.07;nan
82031;BME280;71592;52.178;4.512;2023-08-21T06:59:31;102421.81;;;34.74;nan
82031;BME280;71592;52.178;4.512;2023-08-21T07:02:01;102421.97;;;34.14;nan
82031;BME280;71592;52.178;4.512;2023-08-21T07:04:27;102415.47;;;33.54;nan
82031;BME280;71592;52.178;4.512;2023-08-21T07:06:52;102428.13;;;33.85;nan
82031;BME280;71592;52.178;4.512;2023-08-21T07:09:17;102413.59;;;33.74;nan
82031;BME280;71592;52.178;4.512;2023-08-21T07:11:43;102417.81;;;33.80;nan
82031;BME280;71592;52.178;4.512;2023-08-21T07:14:08;102424.53;;;33.88;nan
82031;BME280;71592;52.178;4.512;2023-08-21T07:16:33;102417.16;;;32.87;nan
82031;BME280;71592;52.178;4.512;2023-08-21T07:18:59;102427.50;;;33.64;nan
82031;BME280;71592;52.178;4.512;2023-08-21T07:21:24;102422.56;;;32.93;nan
82031;BME280;71592;52.178;4.512;2023-08-21T07:23:50;102428.25;;;32.68;nan
82031;BME280;71592;52.178;4.512;2023-08-21T07:26:15;102428.63;;;32.67;nan
82031;BME280;71592;52.178;4.512;2023-08-21T07:28:41;102427.44;;;32.68;nan
82031;BME280;71592;52.178;4.512;2023-08-21T07:31:06;102440.34;;;32.04;nan
82031;BME280;71592;52.178;4.512;2023-08-21T07:33:32;102427.78;;;32.17;nan
82031;BME280;71592;52.178;4.512;2023-08-21T07:36:00;102426.81;;;31.89;nan
82031;BME280;71592;52.178;4.512;2023-08-21T07:38:25;102429.69;;;32.01;nan
82031;BME280;71592;52.178;4.512;2023-08-21T07:41:01;102429.94;;;32.45;nan
82031;BME280;71592;52.178;4.512;2023-08-21T07:43:26;102430.91;;;31.79;nan
82031;BME280;71592;52.178;4.512;2023-08-21T07:45:52;102431.53;;;31.52;nan
82031;BME280;71592;52.178;4.512;2023-08-21T07:48:17;102441.16;;;32.05;nan
82031;BME280;71592;52.178;4.512;2023-08-21T07:50:53;102443.94;;;31.06;nan
82031;BME280;71592;52.178;4.512;2023-08-21T07:53:19;102435.28;;;30.81;nan
82031;BME280;71592;52.178;4.512;2023-08-21T07:55:45;102445.94;;;31.68;nan
82031;BME280;71592;52.178;4.512;2023-08-21T07:58:11;102440.66;;;31.91;nan
82031;BME280;71592;52.178;4.512;2023-08-21T08:00:36;102445.13;;;31.79;nan
82031;BME280;71592;52.178;4.512;2023-08-21T08:03:03;102441.34;;;31.54;nan
82031;BME280;71592;52.178;4.512;2023-08-21T08:05:28;102442.63;;;31.03;nan
82031;BME280;71592;52.178;4.512;2023-08-21T08:07:54;102447.00;;;30.71;nan
82031;BME280;71592;52.178;4.512;2023-08-21T08:10:19;102443.91;;;31.47;nan
82031;BME280;71592;52.178;4.512;2023-08-21T08:12:45;102445.72;;;31.73;nan
82031;BME280;71592;52.178;4.512;2023-08-21T08:15:10;102445.97;;;30.46;nan
82031;BME280;71592;52.178;4.512;2023-08-21T08:17:35;102444.44;;;29.38;nan
82031;BME280;71592;52.178;4.512;2023-08-21T08:20:01;102444.56;;;30.32;nan
82031;BME280;71592;52.178;4.512;2023-08-21T08:22:27;102442.59;;;30.23;nan
82031;BME280;71592;52.178;4.512;2023-08-21T08:24:53;102446.53;;;30.69;nan
82031;BME280;71592;52.178;4.512;2023-08-21T08:27:18;102443.41;;;30.62;nan
82031;BME280;71592;52.178;4.512;2023-08-21T08:29:43;102442.53;;;30.91;nan
82031;BME280;71592;52.178;4.512;2023-08-21T08:32:09;102441.91;;;31.48;nan
82031;BME280;71592;52.178;4.512;2023-08-21T08:34:34;102440.72;;;31.49;nan
82031;BME280;71592;52.178;4.512;2023-08-21T08:37:00;102436.78;;;32.19;nan
82031;BME280;71592;52.178;4.512;2023-08-21T08:39:25;102441.91;;;32.50;nan
82031;BME280;71592;52.178;4.512;2023-08-21T08:42:03;102434.75;;;31.96;nan
82031;BME280;71592;52.178;4.512;2023-08-21T08:44:30;102435.88;;;31.70;nan
82031;BME280;71592;52.178;4.512;2023-08-21T08:47:00;102436.59;;;31.79;nan
82031;BME280;71592;52.178;4.512;2023-08-21T08:49:26;102431.75;;;31.80;nan
82031;BME280;71592;52.178;4.512;2023-08-21T08:51:52;102434.13;;;31.24;nan
82031;BME280;71592;52.178;4.512;2023-08-21T08:54:19;102440.88;;;30.69;nan
82031;BME280;71592;52.178;4.512;2023-08-21T08:56:45;102431.53;;;30.01;nan
82031;BME280;71592;52.178;4.512;2023-08-21T08:59:10;102432.28;;;29.46;nan
82031;BME280;71592;52.178;4.512;2023-08-21T09:01:36;102443.84;;;30.35;nan
82031;BME280;71592;52.178;4.512;2023-08-21T09:04:02;102444.00;;;29.92;nan
82031;BME280;71592;52.178;4.512;2023-08-21T09:06:28;102440.25;;;29.70;nan
82031;BME280;71592;52.178;4.512;2023-08-21T09:08:55;102453.38;;;30.68;nan
82031;BME280;71592;52.178;4.512;2023-08-21T09:11:21;102445.94;;;30.84;nan
82031;BME280;71592;52.178;4.512;2023-08-21T09:13:49;102444.09;;;31.30;nan
82031;BME280;71592;52.178;4.512;2023-08-21T09:16:17;102445.78;;;30.51;nan
82031;BME280;71592;52.178;4.512;2023-08-21T09:18:54;102442.31;;;30.46;nan
82031;BME280;71592;52.178;4.512;2023-08-21T09:21:22;102437.91;;;30.28;nan
82031;BME280;71592;52.178;4.512;2023-08-21T09:23:55;102439.25;;;30.30;nan
82031;BME280;71592;52.178;4.512;2023-08-21T09:26:22;102440.41;;;30.88;nan
82031;BME280;71592;52.178;4.512;2023-08-21T09:28:49;102437.94;;;31.07;nan
82031;BME280;71592;52.178;4.512;2023-08-21T09:31:15;102435.09;;;30.86;nan
82031;BME280;71592;52.178;4.512;2023-08-21T09:33:41;102435.69;;;30.71;nan
82031;BME280;71592;52.178;4.512;2023-08-21T09:36:06;102440.78;;;30.57;nan
82031;BME280;71592;52.178;4.512;2023-08-21T09:38:34;102436.66;;;30.46;nan
82031;BME280;71592;52.178;4.512;2023-08-21T09:41:03;102432.16;;;30.95;nan
82031;BME280;71592;52.178;4.512;2023-08-21T09:43:28;102434.22;;;30.65;nan
82031;BME280;71592;52.178;4.512;2023-08-21T09:45:55;102432.03;;;30.71;nan
82031;BME280;71592;52.178;4.512;2023-08-21T09:48:27;102439.13;;;30.56;nan
82031;BME280;71592;52.178;4.512;2023-08-21T09:50:52;102428.34;;;30.41;nan
82031;BME280;71592;52.178;4.512;2023-08-21T09:53:20;102428.97;;;30.46;nan
82031;BME280;71592;52.178;4.512;2023-08-21T09:55:47;102432.31;;;30.78;nan
82031;BME280;71592;52.178;4.512;2023-08-21T09:58:13;102444.38;;;30.66;nan
82031;BME280;71592;52.178;4.512;2023-08-21T10:00:40;102435.72;;;30.63;nan
82031;BME280;71592;52.178;4.512;2023-08-21T10:03:07;102437.28;;;30.51;nan
82031;BME280;71592;52.178;4.512;2023-08-21T10:05:36;102438.31;;;30.47;nan
82031;BME280;71592;52.178;4.512;2023-08-21T10:08:04;102434.72;;;30.67;nan
82031;BME280;71592;52.178;4.512;2023-08-21T10:10:31;102442.03;;;30.68;nan
82031;BME280;71592;52.178;4.512;2023-08-21T10:12:57;102436.38;;;30.68;nan
82031;BME280;71592;52.178;4.512;2023-08-21T10:15:22;102432.13;;;30.83;nan
82031;BME280;71592;52.178;4.512;2023-08-21T10:17:48;102430.78;;;30.51;nan
82031;BME280;71592;52.178;4.512;2023-08-21T10:20:20;102439.44;;;30.84;nan
82031;BME280;71592;52.178;4.512;2023-08-21T10:22:49;102434.81;;;30.79;nan
82031;BME280;71592;52.178;4.512;2023-08-21T10:27:42;102436.66;;;30.96;nan
82031;BME280;71592;52.178;4.512;2023-08-21T10:30:23;102428.94;;;31.05;nan
82031;BME280;71592;52.178;4.512;2023-08-21T10:32:51;102432.75;;;31.09;nan
82031;BME280;71592;52.178;4.512;2023-08-21T10:35:30;102421.66;;;30.96;nan
82031;BME280;71592;52.178;4.512;2023-08-21T10:38:16;102419.94;;;30.82;nan
82031;BME280;71592;52.178;4.512;2023-08-21T10:41:06;102430.66;;;30.77;nan
82031;BME280;71592;52.178;4.512;2023-08-21T10:46:05;102430.97;;;30.16;nan
82031;BME280;71592;52.178;4.512;2023-08-21T10:48:30;102422.66;;;30.11;nan
82031;BME280;71592;52.178;4.512;2023-08-21T10:50:56;102420.22;;;29.93;nan
82031;BME280;71592;52.178;4.512;2023-08-21T10:53:23;102418.03;;;29.98;nan
82031;BME280;71592;52.178;4.512;2023-08-21T10:55:53;102416.34;;;30.06;nan
82031;BME280;71592;52.178;4.512;2023-08-21T10:58:22;102420.00;;;30.44;nan
82031;BME280;71592;52.178;4.512;2023-08-21T11:00:56;102419.47;;;30.51;nan
82031;BME280;71592;52.178;4.512;2023-08-21T11:03:21;102419.91;;;30.62;nan
82031;BME280;71592;52.178;4.512;2023-08-21T11:06:00;102424.16;;;30.47;nan
82031;BME280;71592;52.178;4.512;2023-08-21T11:08:26;102422.97;;;30.18;nan
82031;BME280;71592;52.178;4.512;2023-08-21T11:10:51;102423.53;;;29.95;nan
82031;BME280;71592;52.178;4.512;2023-08-21T11:13:16;102421.75;;;29.81;nan
82031;BME280;71592;52.178;4.512;2023-08-21T11:15:45;102418.56;;;29.83;nan
82031;BME280;71592;52.178;4.512;2023-08-21T11:18:11;102430.38;;;29.85;nan
82031;BME280;71592;52.178;4.512;2023-08-21T11:20:36;102421.19;;;29.97;nan
82031;BME280;71592;52.178;4.512;2023-08-21T11:23:06;102416.75;;;29.78;nan
82031;BME280;71592;52.178;4.512;2023-08-21T11:25:39;102415.19;;;29.43;nan
82031;BME280;71592;52.178;4.512;2023-08-21T11:28:05;102418.97;;;29.55;nan
82031;BME280;71592;52.178;4.512;2023-08-21T11:30:31;102414.16;;;29.39;nan
82031;BME280;71592;52.178;4.512;2023-08-21T11:33:11;102418.66;;;29.57;nan
82031;BME280;71592;52.178;4.512;2023-08-21T11:35:38;102418.31;;;29.24;nan
82031;BME280;71592;52.178;4.512;2023-08-21T11:38:04;102423.81;;;29.55;nan
82031;BME280;71592;52.178;4.512;2023-08-21T11:40:30;102418.84;;;29.09;nan
82031;BME280;71592;52.178;4.512;2023-08-21T11:43:04;102416.84;;;29.01;nan
82031;BME280;71592;52.178;4.512;2023-08-21T11:45:34;102419.81;;;29.21;nan
82031;BME280;71592;52.178;4.512;2023-08-21T11:48:00;102424.81;;;29.33;nan
82031;BME280;71592;52.178;4.512;2023-08-21T11:50:26;102425.47;;;29.30;nan
82031;BME280;71592;52.178;4.512;2023-08-21T11:52:52;102425.31;;;29.35;nan
82031;BME280;71592;52.178;4.512;2023-08-21T11:55:18;102416.00;;;29.26;nan
82031;BME280;71592;52.178;4.512;2023-08-21T11:57:48;102415.50;;;29.33;nan
82031;BME280;71592;52.178;4.512;2023-08-21T12:00:14;102425.31;;;29.35;nan
82031;BME280;71592;52.178;4.512;2023-08-21T12:02:53;102401.88;;;29.00;nan
82031;BME280;71592;52.178;4.512;2023-08-21T12:05:18;102404.69;;;28.92;nan
82031;BME280;71592;52.178;4.512;2023-08-21T12:07:45;102398.88;;;28.97;nan
82031;BME280;71592;52.178;4.512;2023-08-21T12:10:10;102415.16;;;29.00;nan
82031;BME280;71592;52.178;4.512;2023-08-21T12:12:36;102410.16;;;28.79;nan
82031;BME280;71592;52.178;4.512;2023-08-21T12:15:01;102408.69;;;28.90;nan
82031;BME280;71592;52.178;4.512;2023-08-21T12:17:26;102407.34;;;28.88;nan
82031;BME280;71592;52.178;4.512;2023-08-21T12:19:52;102414.97;;;28.87;nan
82031;BME280;71592;52.178;4.512;2023-08-21T12:22:17;102411.69;;;29.03;nan
82031;BME280;71592;52.178;4.512;2023-08-21T12:24:43;102410.19;;;29.14;nan
82031;BME280;71592;52.178;4.512;2023-08-21T12:27:09;102413.16;;;29.26;nan
82031;BME280;71592;52.178;4.512;2023-08-21T12:29:34;102409.50;;;29.17;nan
82031;BME280;71592;52.178;4.512;2023-08-21T12:32:00;102411.19;;;28.83;nan
82031;BME280;71592;52.178;4.512;2023-08-21T12:34:25;102407.13;;;28.67;nan
82031;BME280;71592;52.178;4.512;2023-08-21T12:36:51;102408.28;;;28.58;nan
82031;BME280;71592;52.178;4.512;2023-08-21T12:39:17;102420.19;;;28.37;nan
82031;BME280;71592;52.178;4.512;2023-08-21T12:41:43;102417.50;;;28.23;nan
82031;BME280;71592;52.178;4.512;2023-08-21T12:44:08;102411.03;;;27.92;nan
82031;BME280;71592;52.178;4.512;2023-08-21T12:46:35;102409.22;;;27.96;nan
82031;BME280;71592;52.178;4.512;2023-08-21T12:49:00;102414.22;;;28.08;nan
82031;BME280;71592;52.178;4.512;2023-08-21T12:51:27;102410.88;;;27.97;nan
82031;BME280;71592;52.178;4.512;2023-08-21T12:53:52;102408.91;;;27.98;nan
82031;BME280;71592;52.178;4.512;2023-08-21T12:56:18;102413.47;;;27.85;nan
82031;BME280;71592;52.178;4.512;2023-08-21T12:58:43;102405.78;;;27.77;nan
82031;BME280;71592;52.178;4.512;2023-08-21T13:01:09;102404.03;;;27.59;nan
82031;BME280;71592;52.178;4.512;2023-08-21T13:03:35;102413.88;;;27.47;nan
82031;BME280;71592;52.178;4.512;2023-08-21T13:06:00;102407.28;;;27.52;nan
82031;BME280;71592;52.178;4.512;2023-08-21T13:08:25;102410.78;;;27.57;nan
82031;BME280;71592;52.178;4.512;2023-08-21T13:10:52;102404.25;;;27.48;nan
82031;BME280;71592;52.178;4.512;2023-08-21T13:13:18;102405.94;;;27.49;nan
82031;BME280;71592;52.178;4.512;2023-08-21T13:15:43;102405.94;;;27.49;nan